createdAt,value
2018-04-22T00:01:54.787Z,5.43
2018-04-22T00:04:22.223Z,5.30
2018-04-22T00:06:49.663Z,5.47
2018-04-22T00:09:17.148Z,5.50
2018-04-22T00:11:44.605Z,5.57
2018-04-22T00:14:12.159Z,5.63
2018-04-22T00:16:39.594Z,6.10
2018-04-22T00:19:07.015Z,5.80
2018-04-22T00:21:34.459Z,5.27
2018-04-22T00:24:01.987Z,5.83
2018-04-22T00:26:29.438Z,5.00
2018-04-22T00:28:56.916Z,5.80
2018-04-22T00:31:24.359Z,5.70
2018-04-22T00:33:51.795Z,5.83
2018-04-22T00:36:19.271Z,5.77
2018-04-22T00:38:46.711Z,5.50
2018-04-22T00:41:14.153Z,5.10
2018-04-22T00:43:42.367Z,5.57
2018-04-22T00:46:09.815Z,5.68
2018-04-22T00:48:37.271Z,5.30
2018-04-22T00:51:04.754Z,5.20
2018-04-22T00:53:44.071Z,5.70
2018-04-22T00:56:11.496Z,5.60
2018-04-22T00:58:39.690Z,5.00
2018-04-22T01:01:07.162Z,5.23
2018-04-22T01:03:34.632Z,5.33
2018-04-22T01:06:02.060Z,6.00
2018-04-22T01:08:29.543Z,6.43
2018-04-22T01:10:56.987Z,6.30
2018-04-22T01:13:24.450Z,5.93
2018-04-22T01:15:51.883Z,5.63
2018-04-22T01:18:19.313Z,5.63
2018-04-22T01:20:47.530Z,6.20
2018-04-22T01:23:14.991Z,5.67
2018-04-22T01:25:42.428Z,5.67
2018-04-22T01:28:09.878Z,5.90
2018-04-22T01:30:38.104Z,6.20
2018-04-22T01:33:05.531Z,5.23
2018-04-22T01:35:33.007Z,6.30
2018-04-22T01:38:00.459Z,6.20
2018-04-22T01:40:27.902Z,6.37
2018-04-22T01:42:55.341Z,6.30
2018-04-22T01:45:23.724Z,5.57
2018-04-22T01:47:51.195Z,5.60
2018-04-22T01:50:18.645Z,6.00
2018-04-22T01:52:46.078Z,5.17
2018-04-22T01:55:13.567Z,6.20
2018-04-22T01:57:41.027Z,5.67
2018-04-22T02:00:08.479Z,5.30
2018-04-22T02:02:35.911Z,5.87
2018-04-22T02:05:03.396Z,6.43
2018-04-22T02:07:30.844Z,5.63
2018-04-22T02:09:58.311Z,6.27
2018-04-22T02:12:25.755Z,5.73
2018-04-22T02:14:53.227Z,6.33
2018-04-22T02:17:20.779Z,6.23
2018-04-22T02:19:48.209Z,6.47
2018-04-22T02:22:15.691Z,7.00
2018-04-22T02:24:43.182Z,7.10
2018-04-22T02:27:10.772Z,6.80
2018-04-22T02:29:38.166Z,7.17
2018-04-22T02:32:05.631Z,6.60
2018-04-22T02:34:33.190Z,6.73
2018-04-22T02:37:00.639Z,5.97
2018-04-22T02:39:28.099Z,5.87
2018-04-22T02:41:55.659Z,6.60
2018-04-22T02:44:23.115Z,6.53
2018-04-22T02:46:50.531Z,7.40
2018-04-22T02:49:18.046Z,6.80
2018-04-22T02:51:45.479Z,6.80
2018-04-22T02:54:12.947Z,6.87
2018-04-22T02:56:40.389Z,7.20
2018-04-22T02:59:07.859Z,6.27
2018-04-22T03:01:35.306Z,5.87
2018-04-22T03:04:02.774Z,6.47
2018-04-22T03:06:30.223Z,6.13
2018-04-22T03:08:57.661Z,5.63
2018-04-22T03:11:25.084Z,5.73
2018-04-22T03:13:53.324Z,6.93
2018-04-22T03:16:20.879Z,6.80
2018-04-22T03:18:48.335Z,7.97
2018-04-22T03:21:15.788Z,8.67
2018-04-22T03:23:43.263Z,8.87
2018-04-22T03:26:10.707Z,8.87
2018-04-22T03:28:38.173Z,9.03
2018-04-22T03:31:05.624Z,9.37
2018-04-22T03:33:33.074Z,8.90
2018-04-22T03:36:00.628Z,9.10
2018-04-22T03:38:28.072Z,9.30
2018-04-22T03:40:55.483Z,9.70
2018-04-22T03:43:22.922Z,9.60
2018-04-22T03:45:50.385Z,9.23
2018-04-22T03:48:17.847Z,9.13
2018-04-22T03:50:45.379Z,11.00
2018-04-22T03:53:12.825Z,9.97
2018-04-22T03:55:40.283Z,11.12
2018-04-22T03:58:07.730Z,10.23
2018-04-22T04:00:35.217Z,9.00
2018-04-22T04:03:02.668Z,9.23
2018-04-22T04:05:30.109Z,8.83
2018-04-22T04:07:57.615Z,9.67
2018-04-22T04:10:25.142Z,9.20
2018-04-22T04:12:52.599Z,9.67
2018-04-22T04:15:20.056Z,9.23
2018-04-22T04:17:59.531Z,9.57
2018-04-22T04:20:38.919Z,10.13
2018-04-22T04:23:06.399Z,9.70
2018-04-22T04:28:34.318Z,9.77
2018-04-22T04:31:01.775Z,10.27
2018-04-22T04:33:29.303Z,10.17
2018-04-22T04:35:56.757Z,10.03
2018-04-22T04:38:24.188Z,9.67
2018-04-22T04:40:51.631Z,8.17
2018-04-22T04:43:19.054Z,7.63
2018-04-22T04:45:46.583Z,6.77
2018-04-22T04:48:14.048Z,8.37
2018-04-22T04:50:41.458Z,7.93
2018-04-22T04:53:09.681Z,7.63
2018-04-22T04:55:37.112Z,7.80
2018-04-22T04:58:04.595Z,7.13
2018-04-22T05:00:32.027Z,7.67
2018-04-22T05:02:59.506Z,7.80
2018-04-22T05:05:26.943Z,8.57
2018-04-22T05:07:54.392Z,7.80
2018-04-22T05:10:21.831Z,8.03
2018-04-22T05:12:50.023Z,8.13
2018-04-22T05:15:17.500Z,7.73
2018-04-22T05:17:44.953Z,8.53
2018-04-22T05:20:12.412Z,7.80
2018-04-22T05:22:39.847Z,8.63
2018-04-22T05:25:07.339Z,8.40
2018-04-22T05:27:34.772Z,8.25
2018-04-22T05:30:02.204Z,7.43
2018-04-22T05:32:30.428Z,8.87
2018-04-22T05:34:57.919Z,8.63
2018-04-22T05:37:25.392Z,8.60
2018-04-22T05:39:52.816Z,8.90
2018-04-22T05:42:20.261Z,8.83
2018-04-22T05:44:48.471Z,9.27
2018-04-22T05:47:15.899Z,8.90
2018-04-22T05:49:43.331Z,8.60
2018-04-22T05:52:10.773Z,8.93
2018-04-22T05:54:38.205Z,8.80
2018-04-22T05:57:05.667Z,8.57
2018-04-22T05:59:33.115Z,10.27
2018-04-22T06:02:00.539Z,8.63
2018-04-22T06:04:28.759Z,8.00
2018-04-22T06:06:56.201Z,8.20
2018-04-22T06:09:23.692Z,7.90
2018-04-22T06:11:51.231Z,8.43
2018-04-22T06:14:18.691Z,9.40
2018-04-22T06:16:46.248Z,8.40
2018-04-22T06:19:13.710Z,9.10
2018-04-22T06:21:41.152Z,10.30
2018-04-22T06:24:09.402Z,9.03
2018-04-22T06:26:36.826Z,9.53
2018-04-22T06:29:04.264Z,9.40
2018-04-22T06:31:31.759Z,9.63
2018-04-22T06:33:59.325Z,9.70
2018-04-22T06:36:26.785Z,10.07
2018-04-22T06:38:54.226Z,9.70
2018-04-22T06:41:21.706Z,9.50
2018-04-22T06:43:49.142Z,10.40
2018-04-22T06:46:16.606Z,10.87
2018-04-22T06:48:44.044Z,9.67
2018-04-22T06:51:11.471Z,10.17
2018-04-22T06:53:39.684Z,10.83
2018-04-22T06:56:07.119Z,10.73
2018-04-22T06:58:34.611Z,11.47
2018-04-22T07:01:02.062Z,10.07
2018-04-22T07:03:29.519Z,11.90
2018-04-22T07:05:56.974Z,10.90
2018-04-22T07:08:24.418Z,11.03
2018-04-22T07:10:51.854Z,11.03
2018-04-22T07:13:19.349Z,11.70
2018-04-22T07:15:46.790Z,12.53
2018-04-22T07:18:14.276Z,12.65
2018-04-22T07:20:41.824Z,12.03
2018-04-22T07:23:09.295Z,14.07
2018-04-22T07:25:36.732Z,13.00
2018-04-22T07:28:04.194Z,13.37
2018-04-22T07:30:31.771Z,13.43
2018-04-22T07:32:59.210Z,13.47
2018-04-22T07:35:26.924Z,14.43
2018-04-22T07:37:54.914Z,14.20
2018-04-22T07:40:22.355Z,14.40
2018-04-22T07:42:49.916Z,14.33
2018-04-22T07:45:18.146Z,15.17
2018-04-22T07:47:45.675Z,14.63
2018-04-22T07:50:13.137Z,15.23
2018-04-22T07:52:40.562Z,15.57
2018-04-22T07:55:08.009Z,17.40
2018-04-22T07:57:35.493Z,16.57
2018-04-22T08:00:02.929Z,16.23
2018-04-22T08:02:30.372Z,17.17
2018-04-22T08:04:57.834Z,16.37
2018-04-22T08:07:25.316Z,18.90
2018-04-22T08:09:52.754Z,21.37
2018-04-22T08:12:20.199Z,22.50
2018-04-22T08:14:47.646Z,23.93
2018-04-22T08:17:15.846Z,22.53
2018-04-22T08:19:43.299Z,21.57
2018-04-22T08:22:10.770Z,23.43
2018-04-22T08:24:38.193Z,22.30
2018-04-22T08:27:05.648Z,23.52
2018-04-22T08:29:33.211Z,22.73
2018-04-22T08:32:00.664Z,22.33
2018-04-22T08:34:28.111Z,22.45
2018-04-22T08:36:55.546Z,22.10
2018-04-22T08:39:22.983Z,23.10
2018-04-22T08:41:51.211Z,23.30
2018-04-22T08:44:18.665Z,23.83
2018-04-22T08:46:46.136Z,23.50
2018-04-22T08:49:13.611Z,23.20
2018-04-22T08:51:41.143Z,22.62
2018-04-22T08:54:08.592Z,23.70
2018-04-22T08:56:36.089Z,25.30
2018-04-22T08:59:03.481Z,25.65
2018-04-22T09:01:30.919Z,25.88
2018-04-22T09:03:59.134Z,26.30
2018-04-22T09:06:26.567Z,28.55
2018-04-22T09:08:54.065Z,27.95
2018-04-22T09:11:21.494Z,28.00
2018-04-22T09:13:48.920Z,27.02
2018-04-22T09:16:17.168Z,26.75
2018-04-22T09:18:44.666Z,26.92
2018-04-22T09:21:12.105Z,26.60
2018-04-22T09:23:40.356Z,28.58
2018-04-22T09:26:07.767Z,27.08
2018-04-22T09:28:35.265Z,27.50
2018-04-22T09:31:02.706Z,28.02
2018-04-22T09:33:30.159Z,29.15
2018-04-22T09:35:57.641Z,28.73
2018-04-22T09:38:25.147Z,28.20
2018-04-22T09:40:52.657Z,31.35
2018-04-22T09:43:20.106Z,30.15
2018-04-22T09:45:47.607Z,29.55
2018-04-22T09:48:15.814Z,30.08
2018-04-22T09:50:43.297Z,31.50
2018-04-22T09:53:10.734Z,30.02
2018-04-22T09:55:38.195Z,32.50
2018-04-22T09:58:05.660Z,32.28
2018-04-22T10:00:33.138Z,32.60
2018-04-22T10:03:09.968Z,32.45
2018-04-22T10:05:43.202Z,31.45
2018-04-22T10:08:10.758Z,34.67
2018-04-22T10:10:39.395Z,33.42
2018-04-22T10:13:07.594Z,34.25
2018-04-22T10:15:35.075Z,35.50
2018-04-22T10:18:02.537Z,35.13
2018-04-22T10:20:30.082Z,33.55
2018-04-22T10:22:58.104Z,34.50
2018-04-22T10:25:25.574Z,34.30
2018-04-22T10:27:53.795Z,34.67
2018-04-22T10:30:21.232Z,32.30
2018-04-22T10:32:48.671Z,32.40
2018-04-22T10:35:16.147Z,32.95
2018-04-22T10:37:43.634Z,34.25
2018-04-22T10:40:11.129Z,32.53
2018-04-22T10:42:38.607Z,32.20
2018-04-22T10:45:06.042Z,31.85
2018-04-22T10:47:34.264Z,31.35
2018-04-22T10:50:01.816Z,31.23
2018-04-22T10:52:29.318Z,30.48
2018-04-22T10:54:56.845Z,30.90
2018-04-22T10:57:24.283Z,32.08
2018-04-22T10:59:52.132Z,31.50
2018-04-22T11:02:19.536Z,31.40
2018-04-22T11:04:46.995Z,32.00
2018-04-22T11:07:14.574Z,30.55
2018-04-22T11:09:42.107Z,33.22
2018-04-22T11:12:09.574Z,35.58
2018-04-22T11:14:37.125Z,35.80
2018-04-22T11:17:04.680Z,35.90
2018-04-22T11:19:32.125Z,33.63
2018-04-22T11:21:59.552Z,37.53
2018-04-22T11:24:26.981Z,37.90
2018-04-22T11:26:55.191Z,37.30
2018-04-22T11:29:22.680Z,38.65
2018-04-22T11:31:50.234Z,35.45
2018-04-22T11:34:17.725Z,35.72
2018-04-22T11:36:45.196Z,39.03
2018-04-22T11:39:12.771Z,37.40
2018-04-22T11:41:41.010Z,37.58
2018-04-22T11:44:08.560Z,37.53
2018-04-22T11:46:36.011Z,34.50
2018-04-22T11:49:03.528Z,33.88
2018-04-22T11:51:31.766Z,33.10
2018-04-22T11:53:59.215Z,32.80
2018-04-22T11:56:26.700Z,32.10
2018-04-22T11:58:54.907Z,29.75
2018-04-22T12:01:22.343Z,23.98
2018-04-22T12:03:50.553Z,20.30
2018-04-22T12:06:18.039Z,19.00
2018-04-22T12:08:45.489Z,18.83
2018-04-22T12:11:12.928Z,18.02
2018-04-22T12:13:40.373Z,11.77
2018-04-22T12:16:07.811Z,10.30
2018-04-22T12:18:35.259Z,8.55
2018-04-22T12:21:03.499Z,8.32
2018-04-22T12:23:30.941Z,14.73
2018-04-22T12:25:58.392Z,7.50
2018-04-22T12:28:25.847Z,8.40
2018-04-22T12:30:53.304Z,9.60
2018-04-22T12:33:20.754Z,10.45
2018-04-22T12:35:48.182Z,9.80
2018-04-22T12:38:15.627Z,9.50
2018-04-22T12:40:43.883Z,13.18
2018-04-22T12:43:12.832Z,11.23
2018-04-22T12:45:40.270Z,11.63
2018-04-22T12:48:07.706Z,15.07
2018-04-22T12:50:35.939Z,15.15
2018-04-22T12:53:03.373Z,13.98
2018-04-22T12:55:30.831Z,13.13
2018-04-22T12:57:58.271Z,13.55
2018-04-22T13:00:25.813Z,12.25
2018-04-22T13:02:54.035Z,12.70
2018-04-22T13:05:21.471Z,12.65
2018-04-22T13:07:48.987Z,10.35
2018-04-22T13:10:16.446Z,11.23
2018-04-22T13:12:43.951Z,10.23
2018-04-22T13:15:11.391Z,11.12
2018-04-22T13:17:38.845Z,11.32
2018-04-22T13:20:07.044Z,12.17
2018-04-22T13:22:34.518Z,12.45
2018-04-22T13:25:01.989Z,12.18
2018-04-22T13:27:29.430Z,11.75
2018-04-22T13:29:56.868Z,10.95
2018-04-22T13:32:24.667Z,12.60
2018-04-22T13:34:52.211Z,12.75
2018-04-22T13:37:19.657Z,11.52
2018-04-22T13:39:47.110Z,12.05
2018-04-22T13:42:14.603Z,11.95
2018-04-22T13:44:42.071Z,11.90
2018-04-22T13:47:09.627Z,10.25
2018-04-22T13:49:38.179Z,10.35
2018-04-22T13:52:05.614Z,11.10
2018-04-22T13:54:33.075Z,12.25
2018-04-22T13:57:00.579Z,10.68
2018-04-22T13:59:28.037Z,10.50
2018-04-22T14:01:55.574Z,9.82
2018-04-22T14:04:23.049Z,9.30
2018-04-22T14:06:50.478Z,8.45
2018-04-22T14:09:17.920Z,6.70
2018-04-22T14:11:45.368Z,6.80
2018-04-22T14:14:12.807Z,5.65
2018-04-22T14:16:40.424Z,5.62
2018-04-22T14:19:07.894Z,6.30
2018-04-22T14:21:35.326Z,5.70
2018-04-22T14:24:02.795Z,6.00
2018-04-22T14:26:30.215Z,5.80
2018-04-22T14:28:57.703Z,4.95
2018-04-22T14:31:25.147Z,4.65
2018-04-22T14:33:52.587Z,5.15
2018-04-22T14:36:20.017Z,5.25
2018-04-22T14:38:47.535Z,5.25
2018-04-22T14:41:14.982Z,4.90
2018-04-22T14:43:54.350Z,5.20
2018-04-22T14:46:21.844Z,5.25
2018-04-22T14:49:02.053Z,5.07
2018-04-22T14:51:29.479Z,5.00
2018-04-22T14:53:56.917Z,5.50
2018-04-22T14:56:25.159Z,5.05
2018-04-22T14:58:52.603Z,4.53
2018-04-22T15:01:20.100Z,4.80
2018-04-22T15:03:47.553Z,5.35
2018-04-22T15:06:15.009Z,4.70
2018-04-22T15:08:42.568Z,4.80
2018-04-22T15:11:10.010Z,4.70
2018-04-22T15:13:37.452Z,4.90
2018-04-22T15:16:04.921Z,5.55
2018-04-22T15:18:32.353Z,6.10
2018-04-22T15:21:00.775Z,7.10
2018-04-22T15:23:28.233Z,8.30
2018-04-22T15:25:55.675Z,6.70
2018-04-22T15:28:23.126Z,3.80
2018-04-22T15:30:50.569Z,3.70
2018-04-22T15:33:18.069Z,5.60
2018-04-22T15:35:45.529Z,6.50
2018-04-22T15:38:12.959Z,6.82
2018-04-22T15:40:40.413Z,7.57
2018-04-22T15:43:07.976Z,8.98
2018-04-22T15:45:35.413Z,8.68
2018-04-22T15:48:02.878Z,12.82
2018-04-22T15:50:30.359Z,14.55
2018-04-22T15:52:57.812Z,15.70
2018-04-22T15:55:25.251Z,21.42
2018-04-22T15:57:52.681Z,17.35
2018-04-22T16:00:20.119Z,17.90
2018-04-22T16:02:48.380Z,20.30
2018-04-22T16:05:15.811Z,20.83
2018-04-22T16:07:43.265Z,24.02
2018-04-22T16:10:10.719Z,24.50
2018-04-22T16:12:38.211Z,23.00
2018-04-22T16:15:05.657Z,24.50
2018-04-22T16:17:33.118Z,28.30
2018-04-22T16:20:01.373Z,28.20
2018-04-22T16:22:28.829Z,27.08
2018-04-22T16:24:56.298Z,25.70
2018-04-22T16:27:23.880Z,23.62
2018-04-22T16:29:52.104Z,22.02
2018-04-22T16:32:19.583Z,20.55
2018-04-22T16:34:47.023Z,19.50
2018-04-22T16:37:14.502Z,20.58
2018-04-22T16:39:41.943Z,20.17
2018-04-22T16:42:09.390Z,20.10
2018-04-22T16:44:36.832Z,18.02
2018-04-22T16:47:04.294Z,16.92
2018-04-22T16:49:31.736Z,16.60
2018-04-22T16:51:59.953Z,17.08
2018-04-22T16:54:27.395Z,16.65
2018-04-22T16:56:54.872Z,16.08
2018-04-22T16:59:22.368Z,15.82
2018-04-22T17:01:49.851Z,15.48
2018-04-22T17:04:18.085Z,15.02
2018-04-22T17:06:45.603Z,20.25
2018-04-22T17:09:13.084Z,21.33
2018-04-22T17:11:40.535Z,21.10
2018-04-22T17:14:07.999Z,19.98
2018-04-22T17:16:35.508Z,18.62
2018-04-22T17:19:03.810Z,18.62
2018-04-22T17:21:31.250Z,20.05
2018-04-22T17:23:58.715Z,18.00
2018-04-22T17:26:26.156Z,20.10
2018-04-22T17:28:54.391Z,19.95
2018-04-22T17:31:21.846Z,22.98
2018-04-22T17:33:49.382Z,20.70
2018-04-22T17:36:16.847Z,19.55
2018-04-22T17:38:44.316Z,18.92
2018-04-22T17:41:11.786Z,20.20
2018-04-22T17:43:40.974Z,21.52
2018-04-22T17:46:08.440Z,22.03
2018-04-22T17:48:35.917Z,21.58
2018-04-22T17:51:03.443Z,21.48
2018-04-22T17:53:30.884Z,18.37
2018-04-22T17:55:58.339Z,16.70
2018-04-22T17:58:25.813Z,14.57
2018-04-22T18:00:53.264Z,13.30
2018-04-22T18:03:20.709Z,12.60
2018-04-22T18:05:48.156Z,13.23
2018-04-22T18:08:15.620Z,12.65
2018-04-22T18:10:43.072Z,10.45
2018-04-22T18:13:10.547Z,10.57
2018-04-22T18:15:38.009Z,10.15
2018-04-22T18:18:05.452Z,9.55
2018-04-22T18:20:32.906Z,9.82
2018-04-22T18:23:00.342Z,10.65
2018-04-22T18:25:27.889Z,6.53
2018-04-22T18:27:56.115Z,5.93
2018-04-22T18:30:23.623Z,6.18
2018-04-22T18:32:51.834Z,6.82
2018-04-22T18:35:19.302Z,6.80
2018-04-22T18:37:46.794Z,6.00
2018-04-22T18:40:14.237Z,6.45
2018-04-22T18:42:41.761Z,7.03
2018-04-22T18:45:09.283Z,6.10
2018-04-22T18:47:37.514Z,6.18
2018-04-22T18:50:04.979Z,7.43
2018-04-22T18:52:32.482Z,5.97
2018-04-22T18:55:00.691Z,6.30
2018-04-22T18:57:28.173Z,6.90
2018-04-22T18:59:55.687Z,5.80
2018-04-22T19:02:23.222Z,5.75
2018-04-22T19:04:50.686Z,5.55
2018-04-22T19:07:18.998Z,5.32
2018-04-22T19:09:46.656Z,4.97
2018-04-22T19:12:14.133Z,5.32
2018-04-22T19:14:41.651Z,5.28
2018-04-22T19:17:09.153Z,5.30
2018-04-22T19:19:36.641Z,5.65
2018-04-22T19:22:04.473Z,5.93
2018-04-22T19:24:31.929Z,6.15
2018-04-22T19:26:59.388Z,6.07
2018-04-22T19:29:26.893Z,5.97
2018-04-22T19:31:55.119Z,6.22
2018-04-22T19:34:22.872Z,5.60
2018-04-22T19:36:50.348Z,5.97
2018-04-22T19:39:17.859Z,6.03
2018-04-22T19:41:45.412Z,8.38
2018-04-22T19:44:12.846Z,8.85
2018-04-22T19:46:41.091Z,6.97
2018-04-22T19:49:08.580Z,6.37
2018-04-22T19:51:36.184Z,6.80
2018-04-22T19:54:03.734Z,6.62
2018-04-22T19:56:31.973Z,6.68
2018-04-22T19:59:00.964Z,7.00
2018-04-22T20:01:28.413Z,6.55
2018-04-22T20:03:55.950Z,7.22
2018-04-22T20:06:23.429Z,6.90
2018-04-22T20:08:50.876Z,7.07
2018-04-22T20:11:18.521Z,7.03
2018-04-22T20:13:46.040Z,6.10
2018-04-22T20:16:13.608Z,6.67
2018-04-22T20:18:41.134Z,6.62
2018-04-22T20:21:08.647Z,6.43
2018-04-22T20:23:36.086Z,7.60
2018-04-22T20:26:04.379Z,7.20
2018-04-22T20:28:31.881Z,6.73
2018-04-22T20:30:59.351Z,6.90
2018-04-22T20:33:26.805Z,6.75
2018-04-22T20:35:54.263Z,6.73
2018-04-22T20:38:21.704Z,6.80
2018-04-22T20:40:49.167Z,7.20
2018-04-22T20:43:16.634Z,7.33
2018-04-22T20:45:44.096Z,7.50
2018-04-22T20:48:12.178Z,7.00
2018-04-22T20:50:39.635Z,5.90
2018-04-22T20:53:07.089Z,6.57
2018-04-22T20:55:34.590Z,6.77
2018-04-22T20:58:02.048Z,7.47
2018-04-22T21:00:29.521Z,7.00
2018-04-22T21:02:56.981Z,5.95
2018-04-22T21:05:24.433Z,6.60
2018-04-22T21:07:51.887Z,6.67
2018-04-22T21:10:19.364Z,7.23
2018-04-22T21:12:46.807Z,7.60
2018-04-22T21:15:14.288Z,6.80
2018-04-22T21:17:41.765Z,7.37
2018-04-22T21:20:09.224Z,7.23
2018-04-22T21:22:36.711Z,6.30
2018-04-22T21:25:04.187Z,7.40
2018-04-22T21:27:31.674Z,6.53
2018-04-22T21:29:59.119Z,7.57
2018-04-22T21:32:26.554Z,7.03
2018-04-22T21:34:54.029Z,7.10
2018-04-22T21:37:21.467Z,7.93
2018-04-22T21:39:48.883Z,7.30
2018-04-22T21:42:17.091Z,7.10
2018-04-22T21:44:44.589Z,7.45
2018-04-22T21:47:12.126Z,7.63
2018-04-22T21:49:39.573Z,7.77
2018-04-22T21:52:07.010Z,7.47
2018-04-22T21:54:34.505Z,7.93
2018-04-22T21:57:01.969Z,7.03
2018-04-22T21:59:29.410Z,7.70
2018-04-22T22:01:56.847Z,8.13
2018-04-22T22:04:24.339Z,7.47
2018-04-22T22:06:51.767Z,6.80
2018-04-22T22:09:19.263Z,7.43
2018-04-22T22:11:46.695Z,7.20
2018-04-22T22:14:14.168Z,6.93
2018-04-22T22:16:41.585Z,7.23
2018-04-22T22:19:09.015Z,6.87
2018-04-22T22:21:37.263Z,7.53
2018-04-22T22:24:04.708Z,7.63
2018-04-22T22:26:32.154Z,7.10
2018-04-22T22:28:59.655Z,7.87
2018-04-22T22:31:27.108Z,7.33
2018-04-22T22:33:54.551Z,6.47
2018-04-22T22:36:21.989Z,8.07
2018-04-22T22:38:49.448Z,6.77
2018-04-22T22:41:16.901Z,6.97
2018-04-22T22:43:44.363Z,7.20
2018-04-22T22:46:11.807Z,6.90
2018-04-22T22:48:39.260Z,7.53
2018-04-22T22:51:06.692Z,7.40
2018-04-22T22:53:34.915Z,6.63
2018-04-22T22:56:02.367Z,6.60
2018-04-22T22:58:29.810Z,6.43
2018-04-22T23:00:57.287Z,6.20
2018-04-22T23:03:24.743Z,6.10
2018-04-22T23:05:52.203Z,6.87
2018-04-22T23:08:19.661Z,6.07
2018-04-22T23:10:47.101Z,7.00
2018-04-22T23:13:14.530Z,6.22
2018-04-22T23:15:41.966Z,6.03
2018-04-22T23:18:10.185Z,6.40
2018-04-22T23:20:37.649Z,6.03
2018-04-22T23:23:05.079Z,6.47
2018-04-22T23:25:32.534Z,5.43
2018-04-22T23:28:00.024Z,6.60
2018-04-22T23:30:27.467Z,6.00
2018-04-22T23:32:54.960Z,6.17
2018-04-22T23:35:22.407Z,6.27
2018-04-22T23:37:49.891Z,5.77
2018-04-22T23:40:17.315Z,6.53
2018-04-22T23:42:44.792Z,6.20
2018-04-22T23:45:12.223Z,5.63
2018-04-22T23:47:39.690Z,6.90
2018-04-22T23:50:07.121Z,5.90
2018-04-22T23:52:34.562Z,6.20
2018-04-22T23:55:02.913Z,6.23
2018-04-22T23:57:31.128Z,6.62
2018-04-22T23:59:58.575Z,6.93
